sensor_id;sensor_type;location;lat;lon;timestamp;pressure;altitude;pressure_sealevel;temperature;humidity
67818;BME280;54614;47.576;7.524;2023-02-18T04:50:35;99645.97;;;23.51;35.83
67818;BME280;54614;47.576;7.524;2023-02-18T04:53:01;99646.28;;;23.33;36.05
67818;BME280;54614;47.576;7.524;2023-02-18T04:55:27;99646.97;;;23.27;36.24
67818;BME280;54614;47.576;7.524;2023-02-18T04:57:52;99649.50;;;23.28;36.53
67818;BME280;54614;47.576;7.524;2023-02-18T05:00:19;99643.81;;;23.23;36.33
67818;BME280;54614;47.576;7.524;2023-02-18T05:02:46;99646.03;;;23.20;36.40
67818;BME280;54614;47.576;7.524;2023-02-18T05:05:13;99641.97;;;23.24;36.49
67818;BME280;54614;47.576;7.524;2023-02-18T05:07:39;99645.50;;;23.24;36.70
67818;BME280;54614;47.576;7.524;2023-02-18T05:10:09;99642.81;;;23.24;36.34
67818;BME280;54614;47.576;7.524;2023-02-18T05:12:35;99639.28;;;23.24;36.65
67818;BME280;54614;47.576;7.524;2023-02-18T05:15:01;99642.31;;;23.21;36.21
67818;BME280;54614;47.576;7.524;2023-02-18T05:17:27;99637.63;;;23.23;36.49
67818;BME280;54614;47.576;7.524;2023-02-18T05:19:52;99633.25;;;23.22;36.31
67818;BME280;54614;47.576;7.524;2023-02-18T05:22:18;99632.59;;;23.20;36.61
67818;BME280;54614;47.576;7.524;2023-02-18T05:24:44;99632.78;;;23.18;36.59
67818;BME280;54614;47.576;7.524;2023-02-18T05:27:10;99628.41;;;23.17;36.47
67818;BME280;54614;47.576;7.524;2023-02-18T05:29:36;99628.25;;;23.19;36.56
67818;BME280;54614;47.576;7.524;2023-02-18T05:32:02;99617.69;;;23.17;36.66
67818;BME280;54614;47.576;7.524;2023-02-18T05:34:27;99623.72;;;23.19;36.37
67818;BME280;54614;47.576;7.524;2023-02-18T05:36:54;99615.84;;;23.18;36.20
67818;BME280;54614;47.576;7.524;2023-02-18T05:39:20;99617.03;;;23.15;36.56
67818;BME280;54614;47.576;7.524;2023-02-18T05:41:45;99622.41;;;23.15;36.51
67818;BME280;54614;47.576;7.524;2023-02-18T05:44:11;99615.19;;;23.15;36.57
67818;BME280;54614;47.576;7.524;2023-02-18T05:47:03;99617.19;;;23.13;36.61
67818;BME280;54614;47.576;7.524;2023-02-18T05:49:31;99620.91;;;23.12;36.55
67818;BME280;54614;47.576;7.524;2023-02-18T05:51:58;99616.53;;;23.11;36.46
67818;BME280;54614;47.576;7.524;2023-02-18T05:54:24;99616.19;;;23.14;36.47
67818;BME280;54614;47.576;7.524;2023-02-18T05:56:51;99617.19;;;23.13;36.43
67818;BME280;54614;47.576;7.524;2023-02-18T05:59:18;99617.03;;;23.15;36.41
67818;BME280;54614;47.576;7.524;2023-02-18T06:01:44;99624.25;;;23.14;36.53
67818;BME280;54614;47.576;7.524;2023-02-18T06:04:10;99627.94;;;23.13;36.64
67818;BME280;54614;47.576;7.524;2023-02-18T06:06:36;99622.56;;;23.13;36.35
67818;BME280;54614;47.576;7.524;2023-02-18T06:09:05;99621.91;;;23.11;36.62
67818;BME280;54614;47.576;7.524;2023-02-18T06:11:31;99620.25;;;23.10;36.40
67818;BME280;54614;47.576;7.524;2023-02-18T06:13:57;99628.59;;;23.15;36.23
67818;BME280;54614;47.576;7.524;2023-02-18T06:16:23;99621.03;;;23.19;36.34
67818;BME280;54614;47.576;7.524;2023-02-18T06:18:49;99620.38;;;23.17;36.28
67818;BME280;54614;47.576;7.524;2023-02-18T06:21:15;99632.47;;;23.13;36.25
67818;BME280;54614;47.576;7.524;2023-02-18T06:23:41;99634.66;;;23.09;36.53
67818;BME280;54614;47.576;7.524;2023-02-18T06:26:07;99631.81;;;23.11;36.42
67818;BME280;54614;47.576;7.524;2023-02-18T06:28:33;99629.97;;;23.11;36.46
67818;BME280;54614;47.576;7.524;2023-02-18T06:30:59;99629.97;;;23.11;36.63
67818;BME280;54614;47.576;7.524;2023-02-18T06:33:25;99632.47;;;23.13;36.59
67818;BME280;54614;47.576;7.524;2023-02-18T06:36:05;99634.63;;;23.18;36.38
67818;BME280;54614;47.576;7.524;2023-02-18T06:38:38;99627.47;;;23.10;36.72
67818;BME280;54614;47.576;7.524;2023-02-18T06:41:04;99630.75;;;22.89;37.37
67818;BME280;54614;47.576;7.524;2023-02-18T06:43:30;99643.81;;;22.92;37.71
67818;BME280;54614;47.576;7.524;2023-02-18T06:45:56;99629.78;;;22.82;37.88
67818;BME280;54614;47.576;7.524;2023-02-18T06:48:22;99619.72;;;22.84;37.97
67818;BME280;54614;47.576;7.524;2023-02-18T06:50:48;99630.53;;;22.99;37.67
67818;BME280;54614;47.576;7.524;2023-02-18T06:53:14;99623.09;;;23.09;37.19
67818;BME280;54614;47.576;7.524;2023-02-18T06:55:44;99628.94;;;23.12;37.07
67818;BME280;54614;47.576;7.524;2023-02-18T06:58:11;99630.97;;;23.10;36.84
67818;BME280;54614;47.576;7.524;2023-02-18T07:00:38;99628.94;;;23.12;36.94
67818;BME280;54614;47.576;7.524;2023-02-18T07:03:05;99622.03;;;23.18;36.91
67818;BME280;54614;47.576;7.524;2023-02-18T07:05:31;99623.84;;;23.26;36.73
67818;BME280;54614;47.576;7.524;2023-02-18T07:07:57;99631.41;;;23.22;37.06
67818;BME280;54614;47.576;7.524;2023-02-18T07:10:23;99625.59;;;23.10;37.25
67818;BME280;54614;47.576;7.524;2023-02-18T07:12:49;99630.44;;;23.15;37.26
67818;BME280;54614;47.576;7.524;2023-02-18T07:15:15;99633.25;;;23.22;37.05
67818;BME280;54614;47.576;7.524;2023-02-18T07:17:42;99629.91;;;23.20;37.07
67818;BME280;54614;47.576;7.524;2023-02-18T07:20:08;99626.41;;;23.19;37.21
67818;BME280;54614;47.576;7.524;2023-02-18T07:22:34;99623.72;;;23.19;37.27
67818;BME280;54614;47.576;7.524;2023-02-18T07:25:00;99624.66;;;23.26;37.03
67818;BME280;54614;47.576;7.524;2023-02-18T07:27:26;99630.28;;;23.17;37.26
67818;BME280;54614;47.576;7.524;2023-02-18T07:29:52;99624.91;;;23.17;37.98
67818;BME280;54614;47.576;7.524;2023-02-18T07:32:19;99628.50;;;23.32;37.83
67818;BME280;54614;47.576;7.524;2023-02-18T07:34:45;99619.78;;;23.30;37.66
67818;BME280;54614;47.576;7.524;2023-02-18T07:37:11;99623.84;;;23.26;37.50
67818;BME280;54614;47.576;7.524;2023-02-18T07:39:43;99622.16;;;23.25;37.65
67818;BME280;54614;47.576;7.524;2023-02-18T07:42:13;99622.53;;;23.22;37.31
67818;BME280;54614;47.576;7.524;2023-02-18T07:44:40;99629.91;;;23.20;37.30
67818;BME280;54614;47.576;7.524;2023-02-18T07:47:08;99630.94;;;23.19;37.65
67818;BME280;54614;47.576;7.524;2023-02-18T07:49:35;99628.38;;;23.25;37.10
67818;BME280;54614;47.576;7.524;2023-02-18T07:52:01;99628.50;;;23.32;37.75
67818;BME280;54614;47.576;7.524;2023-02-18T07:54:27;99629.69;;;23.29;37.05
67818;BME280;54614;47.576;7.524;2023-02-18T07:56:53;99623.66;;;23.27;37.33
67818;BME280;54614;47.576;7.524;2023-02-18T07:59:19;99629.03;;;23.27;37.39
67818;BME280;54614;47.576;7.524;2023-02-18T08:01:45;99640.59;;;23.28;37.58
67818;BME280;54614;47.576;7.524;2023-02-18T08:04:11;99637.63;;;23.23;38.67
67818;BME280;54614;47.576;7.524;2023-02-18T08:06:41;99644.97;;;23.29;38.65
67818;BME280;54614;47.576;7.524;2023-02-18T08:09:08;99639.94;;;23.26;38.70
67818;BME280;54614;47.576;7.524;2023-02-18T08:11:34;99642.16;;;23.22;38.31
67818;BME280;54614;47.576;7.524;2023-02-18T08:14:00;99636.41;;;23.25;37.41
67818;BME280;54614;47.576;7.524;2023-02-18T08:16:26;99642.44;;;23.27;38.37
67818;BME280;54614;47.576;7.524;2023-02-18T08:18:53;99631.91;;;22.95;39.43
67818;BME280;54614;47.576;7.524;2023-02-18T08:21:22;99639.28;;;22.93;39.52
67818;BME280;54614;47.576;7.524;2023-02-18T08:23:48;99634.28;;;22.90;39.64
67818;BME280;54614;47.576;7.524;2023-02-18T08:26:15;99634.94;;;22.92;39.81
67818;BME280;54614;47.576;7.524;2023-02-18T08:28:42;99631.81;;;23.11;40.65
67818;BME280;54614;47.576;7.524;2023-02-18T08:31:23;99630.44;;;23.15;41.88
67818;BME280;54614;47.576;7.524;2023-02-18T08:33:50;99628.16;;;23.04;39.92
67818;BME280;54614;47.576;7.524;2023-02-18T08:36:17;99633.09;;;22.92;40.00
67818;BME280;54614;47.576;7.524;2023-02-18T08:38:43;99632.38;;;22.98;39.89
67818;BME280;54614;47.576;7.524;2023-02-18T08:41:09;99626.56;;;23.18;40.99
67818;BME280;54614;47.576;7.524;2023-02-18T08:43:36;99631.72;;;23.27;43.54
67818;BME280;54614;47.576;7.524;2023-02-18T08:46:03;99630.41;;;23.23;42.58
67818;BME280;54614;47.576;7.524;2023-02-18T08:48:29;99632.72;;;23.26;42.57
67818;BME280;54614;47.576;7.524;2023-02-18T08:50:55;99632.72;;;23.26;42.07
67818;BME280;54614;47.576;7.524;2023-02-18T08:53:21;99633.06;;;23.23;41.65
67818;BME280;54614;47.576;7.524;2023-02-18T08:55:47;99626.00;;;23.30;41.22
67818;BME280;54614;47.576;7.524;2023-02-18T08:58:13;99625.63;;;23.33;40.74
67818;BME280;54614;47.576;7.524;2023-02-18T09:00:40;99628.50;;;23.32;40.47
67818;BME280;54614;47.576;7.524;2023-02-18T09:03:06;99625.56;;;23.41;40.62
67818;BME280;54614;47.576;7.524;2023-02-18T09:05:32;99620.63;;;23.53;40.05
67818;BME280;54614;47.576;7.524;2023-02-18T09:07:58;99626.00;;;23.53;38.53
67818;BME280;54614;47.576;7.524;2023-02-18T09:10:24;99630.38;;;23.54;38.26
67818;BME280;54614;47.576;7.524;2023-02-18T09:12:50;99623.44;;;23.60;37.67
67818;BME280;54614;47.576;7.524;2023-02-18T09:15:16;99619.13;;;23.73;37.40
67818;BME280;54614;47.576;7.524;2023-02-18T09:17:42;99625.56;;;23.87;37.02
67818;BME280;54614;47.576;7.524;2023-02-18T09:20:09;99621.03;;;23.88;36.99
67818;BME280;54614;47.576;7.524;2023-02-18T09:22:34;99618.34;;;23.88;36.67
67818;BME280;54614;47.576;7.524;2023-02-18T09:25:03;99627.59;;;23.85;36.95
67818;BME280;54614;47.576;7.524;2023-02-18T09:27:29;99630.94;;;23.87;36.75
67818;BME280;54614;47.576;7.524;2023-02-18T09:29:55;99633.16;;;23.84;36.69
67818;BME280;54614;47.576;7.524;2023-02-18T09:32:21;99634.16;;;23.83;36.64
67818;BME280;54614;47.576;7.524;2023-02-18T09:34:47;99632.50;;;23.82;36.65
67818;BME280;54614;47.576;7.524;2023-02-18T09:37:13;99640.91;;;23.78;36.74
67818;BME280;54614;47.576;7.524;2023-02-18T09:39:40;99634.91;;;23.76;36.42
67818;BME280;54614;47.576;7.524;2023-02-18T09:42:29;99641.28;;;23.75;36.45
67818;BME280;54614;47.576;7.524;2023-02-18T09:45:02;99642.28;;;23.74;36.56
67818;BME280;54614;47.576;7.524;2023-02-18T09:47:36;99638.13;;;23.72;36.26
67818;BME280;54614;47.576;7.524;2023-02-18T09:52:43;99642.47;;;23.73;36.26
67818;BME280;54614;47.576;7.524;2023-02-18T09:57:58;99647.03;;;23.72;36.46
67818;BME280;54614;47.576;7.524;2023-02-18T10:01:27;99646.84;;;23.74;36.28
67818;BME280;54614;47.576;7.524;2023-02-18T10:04:01;99656.22;;;23.55;36.49
67818;BME280;54614;47.576;7.524;2023-02-18T10:06:33;99643.59;;;23.33;37.96
67818;BME280;54614;47.576;7.524;2023-02-18T10:09:29;99652.34;;;23.27;38.89
67818;BME280;54614;47.576;7.524;2023-02-18T10:12:18;99648.53;;;23.21;39.14
67818;BME280;54614;47.576;7.524;2023-02-18T10:14:58;99650.84;;;23.24;38.62
67818;BME280;54614;47.576;7.524;2023-02-18T10:17:29;99641.63;;;23.27;38.41
67818;BME280;54614;47.576;7.524;2023-02-18T10:19:58;99650.19;;;23.22;38.12
67818;BME280;54614;47.576;7.524;2023-02-18T10:22:26;99650.19;;;23.22;38.20
67818;BME280;54614;47.576;7.524;2023-02-18T10:24:59;99647.34;;;23.24;38.02
67818;BME280;54614;47.576;7.524;2023-02-18T10:27:31;99650.69;;;23.26;38.02
67818;BME280;54614;47.576;7.524;2023-02-18T10:32:43;99653.19;;;23.27;38.18
67818;BME280;54614;47.576;7.524;2023-02-18T10:35:39;99646.97;;;23.27;38.50
67818;BME280;54614;47.576;7.524;2023-02-18T10:38:32;99647.47;;;23.30;38.31
67818;BME280;54614;47.576;7.524;2023-02-18T10:49:46;99638.75;;;23.51;37.59
67818;BME280;54614;47.576;7.524;2023-02-18T10:52:18;99626.53;;;23.48;37.14
67818;BME280;54614;47.576;7.524;2023-02-18T10:55:17;99630.59;;;23.44;37.48
67818;BME280;54614;47.576;7.524;2023-02-18T10:57:53;99629.94;;;23.42;37.35
67818;BME280;54614;47.576;7.524;2023-02-18T11:00:23;99626.41;;;23.42;37.49
67818;BME280;54614;47.576;7.524;2023-02-18T11:03:15;99626.41;;;23.42;37.29
67818;BME280;54614;47.576;7.524;2023-02-18T11:05:44;99619.19;;;23.42;37.05
67818;BME280;54614;47.576;7.524;2023-02-18T11:08:19;99622.06;;;23.41;37.97
67818;BME280;54614;47.576;7.524;2023-02-18T11:10:48;99616.31;;;23.44;37.82
67818;BME280;54614;47.576;7.524;2023-02-18T11:13:24;99603.19;;;23.49;37.57
67818;BME280;54614;47.576;7.524;2023-02-18T11:16:05;99590.31;;;23.44;37.56
67818;BME280;54614;47.576;7.524;2023-02-18T11:18:43;99592.44;;;23.49;37.33
67818;BME280;54614;47.576;7.524;2023-02-18T11:21:30;99587.44;;;23.46;37.45
67818;BME280;54614;47.576;7.524;2023-02-18T11:24:14;99578.56;;;23.45;37.33
67818;BME280;54614;47.576;7.524;2023-02-18T11:26:42;99572.69;;;23.42;37.10
67818;BME280;54614;47.576;7.524;2023-02-18T11:31:46;99573.97;;;23.54;37.67
67818;BME280;54614;47.576;7.524;2023-02-18T11:34:21;99569.44;;;23.55;38.45
67818;BME280;54614;47.576;7.524;2023-02-18T11:36:49;99568.16;;;23.65;38.71
67818;BME280;54614;47.576;7.524;2023-02-18T11:39:26;99565.31;;;23.67;38.24
67818;BME280;54614;47.576;7.524;2023-02-18T11:44:36;99563.72;;;23.58;37.45
67818;BME280;54614;47.576;7.524;2023-02-18T11:52:40;99554.63;;;23.59;37.44
67818;BME280;54614;47.576;7.524;2023-02-18T11:55:24;99544.28;;;23.70;37.21
67818;BME280;54614;47.576;7.524;2023-02-18T11:58:04;99546.88;;;23.78;36.98
67818;BME280;54614;47.576;7.524;2023-02-18T12:00:43;99541.34;;;23.80;37.04
67818;BME280;54614;47.576;7.524;2023-02-18T12:03:41;99540.88;;;23.76;36.66
67818;BME280;54614;47.576;7.524;2023-02-18T12:06:51;99541.03;;;23.75;36.90
67818;BME280;54614;47.576;7.524;2023-02-18T12:09:40;99534.81;;;23.60;37.07
67818;BME280;54614;47.576;7.524;2023-02-18T12:12:34;99535.03;;;23.73;36.48
67818;BME280;54614;47.576;7.524;2023-02-18T12:15:02;99519.75;;;23.73;36.63
67818;BME280;54614;47.576;7.524;2023-02-18T12:18:06;99523.72;;;23.77;36.35
67818;BME280;54614;47.576;7.524;2023-02-18T12:21:05;99519.56;;;23.75;36.80
67818;BME280;54614;47.576;7.524;2023-02-18T12:23:58;99521.03;;;23.77;36.39
67818;BME280;54614;47.576;7.524;2023-02-18T12:38:11;99512.91;;;23.48;37.72
67818;BME280;54614;47.576;7.524;2023-02-18T12:44:38;99494.56;;;23.52;37.95
67818;BME280;54614;47.576;7.524;2023-02-18T12:53:19;99492.22;;;23.34;38.60
67818;BME280;54614;47.576;7.524;2023-02-18T13:08:29;99480.28;;;23.36;38.37
67818;BME280;54614;47.576;7.524;2023-02-18T13:14:13;99470.50;;;23.43;38.11
67818;BME280;54614;47.576;7.524;2023-02-18T13:16:46;99474.56;;;23.39;38.53
67818;BME280;54614;47.576;7.524;2023-02-18T13:21:48;99476.22;;;23.40;38.26
67818;BME280;54614;47.576;7.524;2023-02-18T13:24:32;99461.13;;;23.39;38.25
67818;BME280;54614;47.576;7.524;2023-02-18T13:33:00;99448.81;;;23.30;38.56
67818;BME280;54614;47.576;7.524;2023-02-18T13:35:44;99448.97;;;23.29;38.76
67818;BME280;54614;47.576;7.524;2023-02-18T13:41:12;99437.69;;;23.33;38.45
67818;BME280;54614;47.576;7.524;2023-02-18T13:43:38;99430.84;;;23.31;38.46
67818;BME280;54614;47.576;7.524;2023-02-18T13:46:19;99426.41;;;23.23;38.38
67818;BME280;54614;47.576;7.524;2023-02-18T13:51:43;99428.34;;;23.29;38.64
67818;BME280;54614;47.576;7.524;2023-02-18T13:59:46;99411.88;;;23.47;38.16
67818;BME280;54614;47.576;7.524;2023-02-18T14:10:23;99408.00;;;23.50;37.88
67818;BME280;54614;47.576;7.524;2023-02-18T14:18:19;99404.59;;;23.70;36.78
67818;BME280;54614;47.576;7.524;2023-02-18T14:20:48;99400.06;;;23.71;37.25
67818;BME280;54614;47.576;7.524;2023-02-18T14:25:50;99390.31;;;23.85;37.57
67818;BME280;54614;47.576;7.524;2023-02-18T14:31:22;99392.75;;;24.16;37.63
67818;BME280;54614;47.576;7.524;2023-02-18T14:34:13;99375.03;;;24.21;37.72
67818;BME280;54614;47.576;7.524;2023-02-18T14:40:00;99370.13;;;24.25;36.70
67818;BME280;54614;47.576;7.524;2023-02-18T14:45:59;99372.66;;;24.11;36.79
67818;BME280;54614;47.576;7.524;2023-02-18T14:51:41;99369.97;;;24.26;37.18
67818;BME280;54614;47.576;7.524;2023-02-18T14:54:16;99369.28;;;24.24;37.15
67818;BME280;54614;47.576;7.524;2023-02-18T14:56:59;99365.13;;;24.22;36.72
67818;BME280;54614;47.576;7.524;2023-02-18T14:59:33;99363.44;;;24.35;37.18
67818;BME280;54614;47.576;7.524;2023-02-18T15:02:00;99363.88;;;24.39;36.93
67818;BME280;54614;47.576;7.524;2023-02-18T15:04:26;99361.44;;;24.44;36.77
67818;BME280;54614;47.576;7.524;2023-02-18T15:07:07;99364.59;;;24.48;37.10
67818;BME280;54614;47.576;7.524;2023-02-18T15:09:34;99361.66;;;24.42;36.58
67818;BME280;54614;47.576;7.524;2023-02-18T15:12:09;99363.31;;;24.43;36.47
67818;BME280;54614;47.576;7.524;2023-02-18T15:14:40;99361.84;;;24.41;36.41
67818;BME280;54614;47.576;7.524;2023-02-18T15:17:16;99355.81;;;24.39;36.76
67818;BME280;54614;47.576;7.524;2023-02-18T15:19:52;99358.75;;;24.44;36.44
67818;BME280;54614;47.576;7.524;2023-02-18T15:22:24;99357.28;;;24.41;36.63
67818;BME280;54614;47.576;7.524;2023-02-18T15:24:54;99363.69;;;24.40;36.30
67818;BME280;54614;47.576;7.524;2023-02-18T15:27:28;99359.34;;;24.39;36.54
67818;BME280;54614;47.576;7.524;2023-02-18T15:30:23;99358.13;;;24.42;36.61
67818;BME280;54614;47.576;7.524;2023-02-18T15:32:53;99363.13;;;24.45;36.47
67818;BME280;54614;47.576;7.524;2023-02-18T15:35:22;99369.44;;;24.59;36.29
67818;BME280;54614;47.576;7.524;2023-02-18T15:37:56;99361.56;;;24.57;36.35
67818;BME280;54614;47.576;7.524;2023-02-18T15:40:31;99357.59;;;24.53;36.34
67818;BME280;54614;47.576;7.524;2023-02-18T15:43:01;99360.69;;;24.50;36.24
67818;BME280;54614;47.576;7.524;2023-02-18T15:45:42;99355.94;;;24.52;36.37
67818;BME280;54614;47.576;7.524;2023-02-18T15:48:31;99348.56;;;24.61;36.10
67818;BME280;54614;47.576;7.524;2023-02-18T15:51:05;99350.03;;;24.63;36.44
67818;BME280;54614;47.576;7.524;2023-02-18T15:53:39;99349.41;;;24.61;36.42
67818;BME280;54614;47.576;7.524;2023-02-18T15:56:14;99350.25;;;24.62;36.13
67818;BME280;54614;47.576;7.524;2023-02-18T15:58:42;99343.84;;;24.63;36.15
67818;BME280;54614;47.576;7.524;2023-02-18T16:01:26;99344.22;;;24.60;36.32
67818;BME280;54614;47.576;7.524;2023-02-18T16:03:55;99344.16;;;24.53;36.77
67818;BME280;54614;47.576;7.524;2023-02-18T16:06:30;99347.94;;;24.59;36.10
67818;BME280;54614;47.576;7.524;2023-02-18T16:09:14;99344.28;;;24.66;36.06
67818;BME280;54614;47.576;7.524;2023-02-18T16:11:49;99351.31;;;24.67;35.64
67818;BME280;54614;47.576;7.524;2023-02-18T16:14:42;99343.38;;;24.59;35.95
67818;BME280;54614;47.576;7.524;2023-02-18T16:17:25;99339.63;;;24.54;35.65
67818;BME280;54614;47.576;7.524;2023-02-18T16:20:32;99340.88;;;24.58;35.72
67818;BME280;54614;47.576;7.524;2023-02-18T16:23:13;99346.91;;;24.60;35.74
67818;BME280;54614;47.576;7.524;2023-02-18T16:28:23;99340.13;;;24.64;36.17
67818;BME280;54614;47.576;7.524;2023-02-18T16:30:49;99332.03;;;24.64;36.18
67818;BME280;54614;47.576;7.524;2023-02-18T16:33:15;99332.69;;;24.66;36.42
67818;BME280;54614;47.576;7.524;2023-02-18T16:35:42;99341.34;;;24.61;36.67
67818;BME280;54614;47.576;7.524;2023-02-18T16:38:16;99332.00;;;24.57;36.87
67818;BME280;54614;47.576;7.524;2023-02-18T16:40:43;99331.47;;;24.47;37.29
67818;BME280;54614;47.576;7.524;2023-02-18T16:43:24;99336.34;;;24.58;37.44
67818;BME280;54614;47.576;7.524;2023-02-18T16:45:56;99339.59;;;24.75;37.19
67818;BME280;54614;47.576;7.524;2023-02-18T16:48:33;99346.13;;;24.66;37.19
67818;BME280;54614;47.576;7.524;2023-02-18T16:51:06;99340.38;;;24.69;37.35
67818;BME280;54614;47.576;7.524;2023-02-18T16:53:34;99346.06;;;24.81;37.10
67818;BME280;54614;47.576;7.524;2023-02-18T16:55:59;99347.72;;;24.82;37.39
67818;BME280;54614;47.576;7.524;2023-02-18T16:58:26;99350.66;;;24.87;37.46
67818;BME280;54614;47.576;7.524;2023-02-18T17:00:55;99356.91;;;24.94;37.38
67818;BME280;54614;47.576;7.524;2023-02-18T17:03:21;99353.59;;;24.92;37.74
67818;BME280;54614;47.576;7.524;2023-02-18T17:05:47;99359.06;;;24.98;37.04
67818;BME280;54614;47.576;7.524;2023-02-18T17:08:20;99354.41;;;24.92;37.12
67818;BME280;54614;47.576;7.524;2023-02-18T17:10:56;99347.69;;;25.03;37.54
67818;BME280;54614;47.576;7.524;2023-02-18T17:13:29;99358.09;;;24.85;37.87
67818;BME280;54614;47.576;7.524;2023-02-18T17:15:58;99361.34;;;25.01;37.93
67818;BME280;54614;47.576;7.524;2023-02-18T17:18:25;99351.53;;;24.94;37.89
67818;BME280;54614;47.576;7.524;2023-02-18T17:20:52;99346.63;;;24.97;38.85
67818;BME280;54614;47.576;7.524;2023-02-18T17:23:21;99362.88;;;24.89;39.04
67818;BME280;54614;47.576;7.524;2023-02-18T17:25:49;99360.84;;;24.91;38.14
67818;BME280;54614;47.576;7.524;2023-02-18T17:28:15;99363.78;;;24.96;38.69
67818;BME280;54614;47.576;7.524;2023-02-18T17:30:47;99366.94;;;25.00;38.20
67818;BME280;54614;47.576;7.524;2023-02-18T17:33:17;99366.16;;;25.06;37.54
67818;BME280;54614;47.576;7.524;2023-02-18T17:35:43;99363.66;;;25.04;37.40
67818;BME280;54614;47.576;7.524;2023-02-18T17:38:15;99375.69;;;25.09;37.10
67818;BME280;54614;47.576;7.524;2023-02-18T17:40:42;99365.97;;;25.08;37.00
67818;BME280;54614;47.576;7.524;2023-02-18T17:43:16;99378.00;;;25.12;36.70
67818;BME280;54614;47.576;7.524;2023-02-18T17:45:49;99372.16;;;25.08;36.95
67818;BME280;54614;47.576;7.524;2023-02-18T17:48:15;99379.03;;;25.11;36.85
67818;BME280;54614;47.576;7.524;2023-02-18T17:50:41;99371.16;;;25.09;37.28
67818;BME280;54614;47.576;7.524;2023-02-18T17:53:12;99370.75;;;25.12;37.08
67818;BME280;54614;47.576;7.524;2023-02-18T17:55:39;99381.97;;;25.16;37.26
67818;BME280;54614;47.576;7.524;2023-02-18T17:58:07;99378.88;;;25.19;36.83
67818;BME280;54614;47.576;7.524;2023-02-18T18:00:40;99376.97;;;25.13;36.68
67818;BME280;54614;47.576;7.524;2023-02-18T18:03:06;99371.38;;;25.14;36.77
67818;BME280;54614;47.576;7.524;2023-02-18T18:05:38;99377.22;;;25.18;36.89
67818;BME280;54614;47.576;7.524;2023-02-18T18:08:05;99377.59;;;25.15;36.93
67818;BME280;54614;47.576;7.524;2023-02-18T18:10:49;99371.59;;;25.13;37.08
67818;BME280;54614;47.576;7.524;2023-02-18T18:13:30;99371.19;;;25.16;37.01
67818;BME280;54614;47.576;7.524;2023-02-18T18:15:59;99368.50;;;25.16;36.92
67818;BME280;54614;47.576;7.524;2023-02-18T18:18:26;99371.81;;;25.18;37.20
67818;BME280;54614;47.576;7.524;2023-02-18T18:20:59;99378.25;;;25.17;36.44
67818;BME280;54614;47.576;7.524;2023-02-18T18:23:25;99379.66;;;25.13;36.44
67818;BME280;54614;47.576;7.524;2023-02-18T18:25:56;99372.81;;;25.10;36.57
67818;BME280;54614;47.576;7.524;2023-02-18T18:28:23;99371.34;;;25.08;36.41
67818;BME280;54614;47.576;7.524;2023-02-18T18:30:54;99376.28;;;25.04;36.59
67818;BME280;54614;47.576;7.524;2023-02-18T18:33:25;99381.88;;;25.02;36.63
67818;BME280;54614;47.576;7.524;2023-02-18T18:35:54;99373.53;;;24.97;36.48
67818;BME280;54614;47.576;7.524;2023-02-18T18:38:23;99370.84;;;24.97;36.36
67818;BME280;54614;47.576;7.524;2023-02-18T18:40:51;99370.84;;;24.97;36.54
67818;BME280;54614;47.576;7.524;2023-02-18T18:43:29;99375.56;;;24.95;36.83
67818;BME280;54614;47.576;7.524;2023-02-18T18:45:55;99372.22;;;24.93;36.70
67818;BME280;54614;47.576;7.524;2023-02-18T18:48:22;99376.78;;;24.93;36.55
67818;BME280;54614;47.576;7.524;2023-02-18T18:50:52;99380.69;;;24.90;36.64
67818;BME280;54614;47.576;7.524;2023-02-18T18:53:25;99380.69;;;24.90;36.74
67818;BME280;54614;47.576;7.524;2023-02-18T18:55:58;99375.91;;;24.86;36.58
67818;BME280;54614;47.576;7.524;2023-02-18T18:58:25;99377.81;;;24.92;37.10
67818;BME280;54614;47.576;7.524;2023-02-18T19:00:58;99374.28;;;24.91;36.71
67818;BME280;54614;47.576;7.524;2023-02-18T19:03:27;99382.13;;;24.86;37.01
67818;BME280;54614;47.576;7.524;2023-02-18T19:05:53;99381.72;;;24.89;37.61
67818;BME280;54614;47.576;7.524;2023-02-18T19:08:20;99379.75;;;24.77;38.08
67818;BME280;54614;47.576;7.524;2023-02-18T19:10:48;99383.72;;;24.59;38.83
67818;BME280;54614;47.576;7.524;2023-02-18T19:13:23;99382.66;;;24.54;38.82
67818;BME280;54614;47.576;7.524;2023-02-18T19:15:59;99376.31;;;24.40;39.57
67818;BME280;54614;47.576;7.524;2023-02-18T19:18:26;99377.97;;;24.41;39.56
67818;BME280;54614;47.576;7.524;2023-02-18T19:20:53;99378.34;;;24.38;40.12
67818;BME280;54614;47.576;7.524;2023-02-18T19:23:19;99379.38;;;24.37;39.90
67818;BME280;54614;47.576;7.524;2023-02-18T19:25:44;99373.41;;;24.41;40.03
67818;BME280;54614;47.576;7.524;2023-02-18T19:28:10;99373.81;;;24.60;39.16
67818;BME280;54614;47.576;7.524;2023-02-18T19:30:40;99376.56;;;24.66;39.04
67818;BME280;54614;47.576;7.524;2023-02-18T19:33:07;99374.06;;;24.65;39.23
67818;BME280;54614;47.576;7.524;2023-02-18T19:35:34;99381.56;;;24.69;38.70
67818;BME280;54614;47.576;7.524;2023-02-18T19:38:00;99378.78;;;24.84;38.18
67818;BME280;54614;47.576;7.524;2023-02-18T19:40:29;99373.09;;;24.72;38.82
67818;BME280;54614;47.576;7.524;2023-02-18T19:42:55;99370.47;;;24.79;38.22
67818;BME280;54614;47.576;7.524;2023-02-18T19:45:22;99375.97;;;24.71;38.69
67818;BME280;54614;47.576;7.524;2023-02-18T19:47:56;99370.78;;;24.69;38.59
67818;BME280;54614;47.576;7.524;2023-02-18T19:50:23;99371.63;;;24.70;38.63
67818;BME280;54614;47.576;7.524;2023-02-18T19:52:53;99368.03;;;24.63;39.18
67818;BME280;54614;47.576;7.524;2023-02-18T19:55:20;99369.38;;;24.73;38.16
67818;BME280;54614;47.576;7.524;2023-02-18T19:57:47;99367.44;;;24.89;37.94
67818;BME280;54614;47.576;7.524;2023-02-18T20:00:15;99375.41;;;24.97;38.17
67818;BME280;54614;47.576;7.524;2023-02-18T20:02:41;99379.16;;;24.81;38.65
67818;BME280;54614;47.576;7.524;2023-02-18T20:05:10;99368.03;;;24.84;38.23
67818;BME280;54614;47.576;7.524;2023-02-18T20:07:36;99375.72;;;24.87;38.17